Time;durP1;ratioP1;P1;durP2;ratioP2;P2;SDS_P1;SDS_P2;PMS_P1;PMS_P2;Temp;Humidity;BMP_temperature;BMP_pressure;BME280_temperature;BME280_humidity;BME280_pressure;Samples;Min_cycle;Max_cycle;Signal;HPM_P1;HPM_P2
2023/02/28 00:01:16;;;;;;;;;;;;;;;-142.75;100.00;79823.53;4972301;28;19917;-65
2023/02/28 00:03:41;;;;;;;;;;;;;;;-142.75;100.00;79809.75;4972449;28;20299;-65
2023/02/28 00:06:07;;;;;;;;;;;;;;;-142.75;100.00;79799.91;4972501;28;20365;-66
2023/02/28 00:08:32;;;;;;;;;;;;;;;-142.75;100.00;79797.94;4969660;28;19914;-65
2023/02/28 00:11:01;;;;;;;;;;;;;;;-142.75;100.00;79790.03;4972160;28;19921;-65
2023/02/28 00:13:26;;;;;;;;;;;;;;;-142.75;100.00;79799.91;4972315;28;20392;-66
2023/02/28 00:15:59;;;;;;;;;;;;;;;-142.75;100.00;79815.66;4972353;28;19926;-65
2023/02/28 00:18:24;;;;;;;;;;;;;;;-142.75;100.00;79819.59;4972220;28;19921;-63
2023/02/28 00:20:49;;;;;;;;;;;;;;;-142.75;100.00;79827.47;4972072;28;20295;-66
2023/02/28 00:23:14;;;;;;;;;;;;;;;-142.75;100.00;79827.47;4972293;28;20003;-66
2023/02/28 00:25:40;;;;;;;;;;;;;;;-142.75;100.00;79831.41;4972219;28;19920;-65
2023/02/28 00:28:05;;;;;;;;;;;;;;;-142.75;100.00;79849.16;4972260;28;19917;-65
2023/02/28 00:30:30;;;;;;;;;;;;;;;-142.75;100.00;79859.00;4971887;28;19914;-66
2023/02/28 00:32:55;;;;;;;;;;;;;;;-142.75;100.00;79851.13;4972171;28;19921;-66
2023/02/28 00:35:20;;;;;;;;;;;;;;;-142.75;100.00;79851.13;4972178;28;20528;-65
2023/02/28 00:37:47;;;;;;;;;;;;;;;-142.75;100.00;79833.38;4972172;28;19921;-66
2023/02/28 00:40:12;;;;;;;;;;;;;;;-142.75;100.00;79817.63;4971904;28;19914;-65
2023/02/28 00:42:38;;;;;;;;;;;;;;;-142.75;100.00;79809.75;4972054;28;19969;-65
2023/02/28 00:45:04;;;;;;;;;;;;;;;-142.75;100.00;79815.66;4972087;28;19917;-65
2023/02/28 00:47:30;;;;;;;;;;;;;;;-142.75;100.00;79811.72;4971905;28;20001;-65
2023/02/28 00:49:55;;;;;;;;;;;;;;;-142.75;100.00;79797.94;4974292;28;20009;-65
2023/02/28 00:52:21;;;;;;;;;;;;;;;-142.75;100.00;79788.06;4975872;28;20367;-65
2023/02/28 00:54:46;;;;;;;;;;;;;;;-142.75;100.00;79766.41;4975820;28;19941;-65
2023/02/28 00:57:11;;;;;;;;;;;;;;;-142.75;100.00;79744.72;4975772;28;19918;-67
2023/02/28 00:59:36;;;;;;;;;;;;;;;-142.75;100.00;79717.16;4975488;28;19918;-64
2023/02/28 01:02:02;;;;;;;;;;;;;;;-142.75;100.00;79719.13;4975772;28;20300;-65
2023/02/28 01:04:27;;;;;;;;;;;;;;;-142.75;100.00;79717.16;4975557;28;20298;-67
2023/02/28 01:06:52;;;;;;;;;;;;;;;-142.75;100.00;79703.38;4958396;28;19918;-64
2023/02/28 01:09:17;;;;;;;;;;;;;;;-142.75;100.00;79717.16;4975292;28;20373;-66
2023/02/28 01:11:43;;;;;;;;;;;;;;;-142.75;100.00;79721.09;4956896;28;19925;-65
2023/02/28 01:14:11;;;;;;;;;;;;;;;-142.75;100.00;79717.16;4975491;28;20348;-67
2023/02/28 01:16:37;;;;;;;;;;;;;;;-142.75;100.00;79727.00;4975485;28;19918;-65
2023/02/28 01:19:02;;;;;;;;;;;;;;;-142.75;100.00;79705.34;4975258;28;19921;-65
2023/02/28 01:21:29;;;;;;;;;;;;;;;-142.75;100.00;79713.22;4975312;28;20283;-65
2023/02/28 01:23:56;;;;;;;;;;;;;;;-142.75;100.00;79701.38;4975449;28;19918;-67
2023/02/28 01:26:22;;;;;;;;;;;;;;;-142.75;100.00;79685.63;4975397;28;20004;-65
2023/02/28 01:28:48;;;;;;;;;;;;;;;-142.75;100.00;79669.88;4975118;28;19914;-65
2023/02/28 01:31:13;;;;;;;;;;;;;;;-142.75;100.00;79662.00;4975176;28;19914;-65
2023/02/28 01:33:39;;;;;;;;;;;;;;;-142.75;100.00;79662.00;4975233;28;19937;-65
2023/02/28 01:36:05;;;;;;;;;;;;;;;-142.75;100.00;79652.13;4975284;28;19914;-65
2023/02/28 01:38:31;;;;;;;;;;;;;;;-142.75;100.00;79638.34;4974983;28;20012;-64
2023/02/28 01:40:56;;;;;;;;;;;;;;;-142.75;100.00;79628.50;4974919;28;19989;-65
2023/02/28 01:43:26;;;;;;;;;;;;;;;-142.75;100.00;79634.41;4975650;28;20467;-66
2023/02/28 01:45:53;;;;;;;;;;;;;;;-142.75;100.00;79618.66;4973622;28;19914;-65
2023/02/28 01:48:19;;;;;;;;;;;;;;;-142.75;100.00;79606.84;4974966;28;19914;-66
2023/02/28 01:50:45;;;;;;;;;;;;;;;-142.75;100.00;79610.78;4974733;28;19925;-66
2023/02/28 01:53:15;;;;;;;;;;;;;;;-142.75;100.00;79593.03;4973721;28;19921;-66
2023/02/28 01:55:44;;;;;;;;;;;;;;;-142.75;100.00;79575.31;4973400;28;19925;-65
2023/02/28 01:58:10;;;;;;;;;;;;;;;-142.75;100.00;79577.28;4974384;28;20383;-65
2023/02/28 02:00:35;;;;;;;;;;;;;;;-142.75;100.00;79563.50;4973594;28;19925;-65
2023/02/28 02:03:05;;;;;;;;;;;;;;;-142.75;100.00;79573.34;4974688;28;19913;-66
2023/02/28 02:05:34;;;;;;;;;;;;;;;-142.75;100.00;79567.44;4974705;28;19921;-65
2023/02/28 02:08:04;;;;;;;;;;;;;;;-142.75;100.00;79563.50;4974611;28;20291;-65
2023/02/28 02:10:39;;;;;;;;;;;;;;;-142.75;100.00;79567.44;4974070;28;19920;-66
2023/02/28 02:13:10;;;;;;;;;;;;;;;-142.75;100.00;79547.72;4974522;28;20037;-67
2023/02/28 02:15:35;;;;;;;;;;;;;;;-142.75;100.00;79543.78;4974455;28;19933;-66
2023/02/28 02:18:04;;;;;;;;;;;;;;;-142.75;100.00;79545.75;4974495;28;19914;-65
2023/02/28 02:20:30;;;;;;;;;;;;;;;-142.75;100.00;79531.97;4974063;28;19914;-66
2023/02/28 02:23:21;;;;;;;;;;;;;;;-142.75;100.00;79545.75;4974303;28;20450;-65
2023/02/28 02:25:58;;;;;;;;;;;;;;;-142.75;100.00;79547.72;4973483;28;20359;-65
2023/02/28 02:28:39;;;;;;;;;;;;;;;-142.75;100.00;79551.69;4972706;28;19946;-66
2023/02/28 02:31:27;;;;;;;;;;;;;;;-142.75;100.00;79553.63;4973977;28;19914;-65
2023/02/28 02:34:02;;;;;;;;;;;;;;;-142.75;100.00;79555.63;4974352;28;20351;-64
2023/02/28 02:36:29;;;;;;;;;;;;;;;-142.75;100.00;79547.72;4974117;28;19989;-65
2023/02/28 02:39:00;;;;;;;;;;;;;;;-142.75;100.00;79545.75;4974017;28;19914;-65
2023/02/28 02:41:31;;;;;;;;;;;;;;;-142.75;100.00;79537.88;4973872;28;20014;-65
2023/02/28 02:44:02;;;;;;;;;;;;;;;-142.75;100.00;79539.84;4973947;28;19921;-65
2023/02/28 02:46:27;;;;;;;;;;;;;;;-142.75;100.00;79535.91;4974091;28;20438;-65
2023/02/28 02:48:54;;;;;;;;;;;;;;;-142.75;100.00;79520.16;4972363;28;19918;-65
2023/02/28 02:51:22;;;;;;;;;;;;;;;-142.75;100.00;79531.97;4973505;28;20375;-64
2023/02/28 02:53:49;;;;;;;;;;;;;;;-142.75;100.00;79526.06;4973794;28;19993;-64
2023/02/28 02:56:17;;;;;;;;;;;;;;;-142.75;100.00;79530.00;4973646;28;19920;-64
2023/02/28 02:58:43;;;;;;;;;;;;;;;-142.75;100.00;79535.91;4970342;28;19914;-65
2023/02/28 03:01:12;;;;;;;;;;;;;;;-142.75;100.00;79528.03;4973531;28;19914;-65
2023/02/28 03:03:37;;;;;;;;;;;;;;;-142.75;100.00;79528.03;4956264;28;19937;-65
2023/02/28 03:06:03;;;;;;;;;;;;;;;-142.75;100.00;79524.09;4973711;28;20380;-65
2023/02/28 03:08:29;;;;;;;;;;;;;;;-142.75;100.00;79520.16;4988116;28;19963;-66
2023/02/28 03:10:56;;;;;;;;;;;;;;;-142.75;100.00;79541.81;4973054;28;19914;-65
2023/02/28 03:13:57;;;;;;;;;;;;;;;-142.75;100.00;79531.97;4972521;28;20294;-64
2023/02/28 03:16:28;;;;;;;;;;;;;;;-142.75;100.00;79543.78;4950228;29;19925;-67
2023/02/28 03:18:57;;;;;;;;;;;;;;;-142.75;100.00;79543.78;4966178;28;19953;-65
2023/02/28 03:21:41;;;;;;;;;;;;;;;-142.75;100.00;79539.84;4973056;28;19914;-65
2023/02/28 03:24:06;;;;;;;;;;;;;;;-142.75;100.00;79528.03;4988182;28;19918;-64
2023/02/28 03:26:34;;;;;;;;;;;;;;;-142.75;100.00;79520.16;4973186;28;19921;-65
2023/02/28 03:28:59;;;;;;;;;;;;;;;-142.75;100.00;79535.91;4972961;28;19917;-67
2023/02/28 03:31:38;;;;;;;;;;;;;;;-142.75;100.00;79522.13;4972848;28;19918;-65
2023/02/28 03:34:08;;;;;;;;;;;;;;;-142.75;100.00;79528.03;4972932;28;19925;-65
2023/02/28 03:36:41;;;;;;;;;;;;;;;-142.75;100.00;79516.22;4972952;28;19976;-65
2023/02/28 03:39:08;;;;;;;;;;;;;;;-142.75;100.00;79520.16;4972847;28;20005;-65
2023/02/28 03:41:44;;;;;;;;;;;;;;;-142.75;100.00;79541.81;4972470;28;19921;-67
2023/02/28 03:44:15;;;;;;;;;;;;;;;-142.75;100.00;79533.94;4972854;28;19917;-65
2023/02/28 03:46:42;;;;;;;;;;;;;;;-142.75;100.00;79524.09;4956187;28;19965;-67
2023/02/28 03:49:16;;;;;;;;;;;;;;;-142.75;100.00;79518.19;4973111;28;19917;-65
2023/02/28 03:51:43;;;;;;;;;;;;;;;-142.75;100.00;79530.00;4972644;28;19914;-65
2023/02/28 03:54:12;;;;;;;;;;;;;;;-142.75;100.00;79533.94;4972553;28;20302;-66
2023/02/28 03:56:39;;;;;;;;;;;;;;;-142.75;100.00;79518.19;4972639;28;19937;-65
2023/02/28 03:59:07;;;;;;;;;;;;;;;-142.75;100.00;79530.00;4972519;28;19914;-65
2023/02/28 04:01:35;;;;;;;;;;;;;;;-142.75;100.00;79508.34;4972347;28;19914;-65
2023/02/28 04:04:01;;;;;;;;;;;;;;;-142.75;100.00;79498.47;4972596;28;19914;-65
2023/02/28 04:06:27;;;;;;;;;;;;;;;-142.75;100.00;79512.28;4972504;28;19913;-66
2023/02/28 04:08:53;;;;;;;;;;;;;;;-142.75;100.00;79516.22;4972496;28;19914;-65
2023/02/28 04:11:18;;;;;;;;;;;;;;;-142.75;100.00;79520.16;4971881;28;19914;-66
2023/02/28 04:13:43;;;;;;;;;;;;;;;-142.75;100.00;79533.94;4972461;28;20414;-66
2023/02/28 04:16:12;;;;;;;;;;;;;;;-142.75;100.00;79514.25;4972381;28;19990;-66
2023/02/28 04:18:37;;;;;;;;;;;;;;;-142.75;100.00;79528.03;4972345;28;20354;-65
2023/02/28 04:21:03;;;;;;;;;;;;;;;-142.75;100.00;79504.41;4972084;28;19914;-66
2023/02/28 04:23:28;;;;;;;;;;;;;;;-142.75;100.00;79500.47;4970843;28;19913;-66
2023/02/28 04:25:55;;;;;;;;;;;;;;;-142.75;100.00;79510.31;4972198;28;19921;-65
2023/02/28 04:28:20;;;;;;;;;;;;;;;-142.75;100.00;79500.47;4972308;28;20009;-65
2023/02/28 04:30:45;;;;;;;;;;;;;;;-142.75;100.00;79500.47;4971817;28;20012;-65
2023/02/28 04:33:10;;;;;;;;;;;;;;;-142.75;100.00;79516.22;4972308;28;19921;-65
2023/02/28 04:35:35;;;;;;;;;;;;;;;-142.75;100.00;79539.84;4972151;28;19973;-65
2023/02/28 04:38:01;;;;;;;;;;;;;;;-142.75;100.00;79545.75;4970650;28;20004;-65
2023/02/28 04:40:26;;;;;;;;;;;;;;;-142.75;100.00;79531.97;4971807;28;20294;-65
2023/02/28 04:42:51;;;;;;;;;;;;;;;-142.75;100.00;79531.97;4972130;28;19914;-65
2023/02/28 04:45:17;;;;;;;;;;;;;;;-142.75;100.00;79514.25;4971876;28;19925;-64
2023/02/28 04:47:42;;;;;;;;;;;;;;;-142.75;100.00;79522.13;4971955;28;20002;-65
2023/02/28 04:50:08;;;;;;;;;;;;;;;-142.75;100.00;79518.19;4971863;28;19921;-65
2023/02/28 04:52:33;;;;;;;;;;;;;;;-142.75;100.00;79533.94;4972046;28;20408;-66
2023/02/28 04:54:59;;;;;;;;;;;;;;;-142.75;100.00;79530.00;4971985;28;19925;-65
2023/02/28 04:57:24;;;;;;;;;;;;;;;-142.75;100.00;79553.63;4971957;28;19918;-67
2023/02/28 04:59:49;;;;;;;;;;;;;;;-142.75;100.00;79530.00;4971603;28;19960;-65
2023/02/28 05:02:14;;;;;;;;;;;;;;;-142.75;100.00;79530.00;4972053;28;20431;-67
2023/02/28 05:04:39;;;;;;;;;;;;;;;-142.75;100.00;79528.03;4954109;28;20383;-65
2023/02/28 05:07:05;;;;;;;;;;;;;;;-142.75;100.00;79530.00;4971929;28;19925;-66
2023/02/28 05:09:30;;;;;;;;;;;;;;;-142.75;100.00;79531.97;4971665;28;20318;-65
2023/02/28 05:11:55;;;;;;;;;;;;;;;-142.75;100.00;79518.19;4971661;28;20394;-65
2023/02/28 05:14:21;;;;;;;;;;;;;;;-142.75;100.00;79530.00;4971764;28;19918;-65
2023/02/28 05:16:46;;;;;;;;;;;;;;;-142.75;100.00;79528.03;4971775;28;19957;-65
2023/02/28 05:19:11;;;;;;;;;;;;;;;-142.75;100.00;79522.13;4971671;28;19921;-66
2023/02/28 05:21:53;;;;;;;;;;;;;;;-142.75;100.00;79512.28;4969848;28;19914;-65
2023/02/28 05:24:24;;;;;;;;;;;;;;;-142.75;100.00;79522.13;4971679;28;19914;-65
2023/02/28 05:26:51;;;;;;;;;;;;;;;-142.75;100.00;79516.22;4971812;28;19921;-63
2023/02/28 05:29:17;;;;;;;;;;;;;;;-142.75;100.00;79512.28;4971559;28;19969;-65
2023/02/28 05:31:42;;;;;;;;;;;;;;;-142.75;100.00;79504.41;4969981;28;19917;-67
2023/02/28 05:34:07;;;;;;;;;;;;;;;-142.75;100.00;79496.50;4971578;28;19917;-65
2023/02/28 05:36:33;;;;;;;;;;;;;;;-142.75;100.00;79478.78;4973290;28;19914;-65
2023/02/28 05:38:58;;;;;;;;;;;;;;;-142.75;100.00;79472.88;4974840;28;19953;-65
2023/02/28 05:41:23;;;;;;;;;;;;;;;-142.75;100.00;79472.88;4974911;28;19985;-65
2023/02/28 05:43:48;;;;;;;;;;;;;;;-142.75;100.00;79516.22;4975159;28;19945;-64
2023/02/28 05:46:14;;;;;;;;;;;;;;;-142.75;100.00;79520.16;4975132;28;19980;-65
2023/02/28 05:48:40;;;;;;;;;;;;;;;-142.75;100.00;79559.56;4974824;28;19914;-66
2023/02/28 05:51:06;;;;;;;;;;;;;;;-142.75;100.00;79589.09;4974698;28;19918;-65
2023/02/28 05:53:31;;;;;;;;;;;;;;;-142.75;100.00;79591.06;4974842;28;19914;-64
2023/02/28 05:55:57;;;;;;;;;;;;;;;-142.75;100.00;79614.72;4974759;28;20575;-65
2023/02/28 05:58:22;;;;;;;;;;;;;;;-142.75;100.00;79634.41;4957067;28;19921;-65
2023/02/28 06:00:48;;;;;;;;;;;;;;;-142.75;100.00;79662.00;4974441;28;19914;-65
2023/02/28 06:03:13;;;;;;;;;;;;;;;-142.75;100.00;79665.94;4973519;28;19922;-65
2023/02/28 06:05:38;;;;;;;;;;;;;;;-142.75;100.00;79677.75;4974581;28;19922;-65
2023/02/28 06:08:04;;;;;;;;;;;;;;;-142.75;100.00;79697.44;4974484;28;19913;-65
2023/02/28 06:10:29;;;;;;;;;;;;;;;-142.75;100.00;79701.38;4974208;28;20291;-65
2023/02/28 06:12:54;;;;;;;;;;;;;;;-142.75;100.00;79709.28;4974639;28;19954;-66
2023/02/28 06:15:20;;;;;;;;;;;;;;;-142.75;100.00;79709.28;4974068;28;19924;-65
2023/02/28 06:17:46;;;;;;;;;;;;;;;-142.75;100.00;79736.84;4974357;28;19918;-65
2023/02/28 06:20:12;;;;;;;;;;;;;;;-142.75;100.00;79727.00;4974023;28;20284;-66
2023/02/28 06:22:38;;;;;;;;;;;;;;;-142.75;100.00;79736.84;4974358;28;20383;-65
2023/02/28 06:25:04;;;;;;;;;;;;;;;-142.75;100.00;79736.84;4974290;28;19922;-65
2023/02/28 06:27:30;;;;;;;;;;;;;;;-142.75;100.00;79756.56;4974188;28;19914;-65
2023/02/28 06:29:55;;;;;;;;;;;;;;;-142.75;100.00;79774.28;4973963;28;20020;-66
2023/02/28 06:32:21;;;;;;;;;;;;;;;-142.75;100.00;79780.19;4973715;28;20507;-64
2023/02/28 06:34:46;;;;;;;;;;;;;;;-142.75;100.00;79780.19;4956582;28;20020;-64
2023/02/28 06:37:11;;;;;;;;;;;;;;;-142.75;100.00;79776.25;4973961;28;20386;-65
2023/02/28 06:39:36;;;;;;;;;;;;;;;-142.75;100.00;79772.31;4956393;28;19914;-63
2023/02/28 06:42:02;;;;;;;;;;;;;;;-142.75;100.00;79780.19;4973957;28;20273;-64
2023/02/28 06:44:33;;;;;;;;;;;;;;;-142.75;100.00;79772.31;4973987;28;20394;-65
2023/02/28 06:46:58;;;;;;;;;;;;;;;-142.75;100.00;79752.63;4973699;28;19914;-62
2023/02/28 06:49:23;;;;;;;;;;;;;;;-142.75;100.00;79766.41;4973672;28;20395;-62
2023/02/28 06:51:48;;;;;;;;;;;;;;;-142.75;100.00;79768.38;4973539;28;19914;-62
2023/02/28 06:54:13;;;;;;;;;;;;;;;-142.75;100.00;79786.09;4956334;28;19918;-63
2023/02/28 06:56:39;;;;;;;;;;;;;;;-142.75;100.00;79795.94;4972310;28;20287;-64
2023/02/28 06:59:04;;;;;;;;;;;;;;;-142.75;100.00;79788.06;4973439;28;20434;-64
2023/02/28 07:01:31;;;;;;;;;;;;;;;-142.75;100.00;79784.13;4973418;28;20376;-66
2023/02/28 07:03:56;;;;;;;;;;;;;;;-142.75;100.00;79792.00;4973533;28;19914;-64
2023/02/28 07:06:22;;;;;;;;;;;;;;;-142.75;100.00;79803.84;4973474;28;19968;-65
2023/02/28 07:08:48;;;;;;;;;;;;;;;-142.75;100.00;79793.97;4973450;28;19996;-66
2023/02/28 07:11:13;;;;;;;;;;;;;;;-142.75;100.00;79778.22;4973127;28;19922;-64
2023/02/28 07:13:39;;;;;;;;;;;;;;;-142.75;100.00;79766.41;4973301;28;20000;-64
2023/02/28 07:16:05;;;;;;;;;;;;;;;-142.75;100.00;79768.38;4971380;28;20869;-65
2023/02/28 07:18:31;;;;;;;;;;;;;;;-142.75;100.00;79772.31;4971791;28;19918;-65
2023/02/28 07:20:56;;;;;;;;;;;;;;;-142.75;100.00;79772.31;4972578;28;19920;-63
2023/02/28 07:23:22;;;;;;;;;;;;;;;-142.75;100.00;79764.44;4972539;28;19914;-64
2023/02/28 07:25:47;;;;;;;;;;;;;;;-142.75;100.00;79762.47;4972776;28;19960;-64
2023/02/28 07:28:13;;;;;;;;;;;;;;;-142.75;100.00;79762.47;4972425;28;19914;-64
2023/02/28 07:30:38;;;;;;;;;;;;;;;-142.75;100.00;79754.59;4972197;28;20009;-64
2023/02/28 07:33:03;;;;;;;;;;;;;;;-142.75;100.00;79750.66;4972100;28;19957;-64
2023/02/28 07:35:28;;;;;;;;;;;;;;;-142.75;100.00;79732.91;4972346;28;19917;-65
2023/02/28 07:37:54;;;;;;;;;;;;;;;-142.75;100.00;79723.06;4971764;28;20023;-65
2023/02/28 07:40:19;;;;;;;;;;;;;;;-142.75;100.00;79715.19;4972211;28;19914;-64
2023/02/28 07:42:44;;;;;;;;;;;;;;;-142.75;100.00;79711.25;4972755;28;20322;-64
2023/02/28 07:45:11;;;;;;;;;;;;;;;-142.75;100.00;79711.25;4970636;28;20402;-66
2023/02/28 07:47:37;;;;;;;;;;;;;;;-142.75;100.00;79717.16;4971923;28;19914;-65
2023/02/28 07:50:02;;;;;;;;;;;;;;;-142.75;100.00;79721.09;4969857;28;19996;-63
2023/02/28 07:52:27;;;;;;;;;;;;;;;-142.75;100.00;79679.72;4972646;28;19925;-65
2023/02/28 07:54:52;;;;;;;;;;;;;;;-142.75;100.00;79685.63;4972529;28;19965;-65
2023/02/28 07:57:18;;;;;;;;;;;;;;;-142.75;100.00;79693.50;4972670;28;19914;-63
2023/02/28 07:59:43;;;;;;;;;;;;;;;-142.75;100.00;79673.81;4970113;28;20624;-65
2023/02/28 08:02:15;;;;;;;;;;;;;;;-142.75;100.00;79665.94;4972541;28;20292;-67
2023/02/28 08:04:40;;;;;;;;;;;;;;;-142.75;100.00;79656.09;4972492;28;19921;-66
2023/02/28 08:07:06;;;;;;;;;;;;;;;-142.75;100.00;79654.13;4972561;28;19913;-65
2023/02/28 08:09:31;;;;;;;;;;;;;;;-142.75;100.00;79660.03;4972072;28;19918;-65
2023/02/28 08:11:56;;;;;;;;;;;;;;;-142.75;100.00;79667.91;4972474;28;20294;-65
2023/02/28 08:14:22;;;;;;;;;;;;;;;-142.75;100.00;79658.06;4972314;28;19924;-66
2023/02/28 08:16:47;;;;;;;;;;;;;;;-142.75;100.00;79662.00;4972397;28;19960;-65
2023/02/28 08:19:13;;;;;;;;;;;;;;;-142.75;100.00;79662.00;4972231;28;19913;-65
2023/02/28 08:21:38;;;;;;;;;;;;;;;-142.75;100.00;79662.00;4972023;28;19968;-66
2023/02/28 08:24:03;;;;;;;;;;;;;;;-142.75;100.00;79662.00;4972328;28;19914;-65
2023/02/28 08:26:28;;;;;;;;;;;;;;;-142.75;100.00;79654.13;4972307;28;20054;-65
2023/02/28 08:28:54;;;;;;;;;;;;;;;-142.75;100.00;79654.13;4972088;28;19914;-64
2023/02/28 08:31:19;;;;;;;;;;;;;;;-142.75;100.00;79636.38;4972199;28;19996;-65
2023/02/28 08:33:45;;;;;;;;;;;;;;;-142.75;100.00;79628.50;4972088;28;20000;-65
2023/02/28 08:36:10;;;;;;;;;;;;;;;-142.75;100.00;79612.75;4954710;28;20033;-65
2023/02/28 08:38:36;;;;;;;;;;;;;;;-142.75;100.00;79610.78;4972382;28;19949;-66
2023/02/28 08:41:03;;;;;;;;;;;;;;;-142.75;100.00;79595.00;4971946;28;19984;-65
2023/02/28 08:43:28;;;;;;;;;;;;;;;-142.75;100.00;79602.88;4972197;28;19914;-65
2023/02/28 08:45:56;;;;;;;;;;;;;;;-142.75;100.00;79602.88;4972061;28;19914;-66
2023/02/28 08:48:22;;;;;;;;;;;;;;;-142.75;100.00;79577.28;4972105;28;19914;-67
2023/02/28 08:50:59;;;;;;;;;;;;;;;-142.75;100.00;79563.50;4971723;28;19921;-66
2023/02/28 08:53:24;;;;;;;;;;;;;;;-142.75;100.00;79575.31;4971188;28;19968;-66
2023/02/28 08:56:16;;;;;;;;;;;;;;;-142.75;100.00;79575.31;4971964;28;19918;-66
2023/02/28 08:58:41;;;;;;;;;;;;;;;-142.75;100.00;79567.44;4969755;28;19920;-64
2023/02/28 09:01:08;;;;;;;;;;;;;;;-142.75;100.00;79565.47;4971671;28;19918;-65
2023/02/28 09:03:33;;;;;;;;;;;;;;;-142.75;100.00;79573.34;4971705;28;19914;-66
2023/02/28 09:05:59;;;;;;;;;;;;;;;-142.75;100.00;79559.56;4972283;28;20368;-66
2023/02/28 09:08:25;;;;;;;;;;;;;;;-142.75;100.00;79533.94;4971826;28;19969;-65
2023/02/28 09:10:50;;;;;;;;;;;;;;;-142.75;100.00;79537.88;4973853;28;19914;-67
2023/02/28 09:13:16;;;;;;;;;;;;;;;-142.75;100.00;79526.06;4975594;28;19921;-65
2023/02/28 09:15:41;;;;;;;;;;;;;;;-142.75;100.00;79528.03;4975472;28;19922;-65
2023/02/28 09:18:06;;;;;;;;;;;;;;;-142.75;100.00;79530.00;4975490;28;20141;-64
2023/02/28 09:20:31;;;;;;;;;;;;;;;-142.75;100.00;79547.72;4973837;28;19920;-65
2023/02/28 09:22:57;;;;;;;;;;;;;;;-142.75;100.00;79547.72;4975528;28;19913;-65
2023/02/28 09:25:22;;;;;;;;;;;;;;;-142.75;100.00;79526.06;4975345;28;19921;-62
2023/02/28 09:27:48;;;;;;;;;;;;;;;-142.75;100.00;79541.81;4975321;28;19914;-65
2023/02/28 09:30:13;;;;;;;;;;;;;;;-142.75;100.00;79535.91;4973586;28;19957;-65
2023/02/28 09:32:38;;;;;;;;;;;;;;;-142.75;100.00;79537.88;4974052;28;19914;-65
2023/02/28 09:35:04;;;;;;;;;;;;;;;-142.75;100.00;79553.63;4975198;28;19929;-67
2023/02/28 09:37:31;;;;;;;;;;;;;;;-142.75;100.00;79531.97;4975228;28;19914;-66
2023/02/28 09:39:56;;;;;;;;;;;;;;;-142.75;100.00;79512.28;4974914;28;19918;-67
2023/02/28 09:42:26;;;;;;;;;;;;;;;-142.75;100.00;79526.06;4975226;28;19914;-65
2023/02/28 09:44:51;;;;;;;;;;;;;;;-142.75;100.00;79541.81;4975042;28;20454;-65
2023/02/28 09:47:32;;;;;;;;;;;;;;;-142.75;100.00;79565.47;4966157;28;19914;-67
2023/02/28 09:49:59;;;;;;;;;;;;;;;-142.75;100.00;79561.53;4974893;28;19985;-66
2023/02/28 09:52:28;;;;;;;;;;;;;;;-142.75;100.00;79555.63;4975124;28;20323;-61
2023/02/28 09:54:54;;;;;;;;;;;;;;;-142.75;100.00;79563.50;4974979;28;19926;-66
2023/02/28 09:57:34;;;;;;;;;;;;;;;-142.75;100.00;79591.06;4974897;28;20044;-66
2023/02/28 10:00:09;;;;;;;;;;;;;;;-142.75;100.00;79581.22;4973340;28;20335;-66
2023/02/28 10:02:52;;;;;;;;;;;;;;;-142.75;100.00;79575.31;4974917;28;19914;-66
2023/02/28 10:05:37;;;;;;;;;;;;;;;-142.75;100.00;79579.25;4974867;28;19964;-66
2023/02/28 10:08:08;;;;;;;;;;;;;;;-142.75;100.00;79581.22;4955694;28;19997;-65
2023/02/28 10:10:39;;;;;;;;;;;;;;;-142.75;100.00;79608.81;4974135;28;19914;-65
2023/02/28 10:13:06;;;;;;;;;;;;;;;-142.75;100.00;79591.06;4974414;28;19914;-66
2023/02/28 10:15:33;;;;;;;;;;;;;;;-142.75;100.00;79595.00;4974464;28;20244;-65
2023/02/28 10:18:12;;;;;;;;;;;;;;;-142.75;100.00;79595.00;4974290;28;19937;-64
2023/02/28 10:20:40;;;;;;;;;;;;;;;-142.75;100.00;79595.00;4974100;28;19921;-65
2023/02/28 10:23:13;;;;;;;;;;;;;;;-142.75;100.00;79579.25;4973978;28;19962;-65
2023/02/28 10:25:38;;;;;;;;;;;;;;;-142.75;100.00;79561.53;4974202;28;19960;-65
2023/02/28 10:28:09;;;;;;;;;;;;;;;-142.75;100.00;79545.75;4974153;28;20391;-66
2023/02/28 10:30:36;;;;;;;;;;;;;;;-142.75;100.00;79528.03;4972777;28;20008;-65
2023/02/28 10:33:01;;;;;;;;;;;;;;;-142.75;100.00;79504.41;4974225;28;19914;-65
2023/02/28 10:35:27;;;;;;;;;;;;;;;-142.75;100.00;79476.81;4974136;28;19925;-65
2023/02/28 10:37:56;;;;;;;;;;;;;;;-142.75;100.00;79398.03;4974066;28;19921;-67
2023/02/28 10:40:22;;;;;;;;;;;;;;;-142.75;100.00;79299.53;4973760;28;20350;-66
2023/02/28 10:43:01;;;;;;;;;;;;;;;-142.75;100.00;79240.44;4974128;28;19913;-66
2023/02/28 10:45:28;;;;;;;;;;;;;;;-142.75;100.00;79145.88;4973859;28;20009;-65
2023/02/28 10:47:55;;;;;;;;;;;;;;;-142.75;100.00;79157.72;4974015;28;19921;-66
2023/02/28 10:50:26;;;;;;;;;;;;;;;-142.75;100.00;79185.28;4973617;28;20430;-67
2023/02/28 10:52:53;;;;;;;;;;;;;;;-142.75;100.00;79208.91;4973840;28;19992;-65
2023/02/28 10:55:22;;;;;;;;;;;;;;;-142.75;97.92;79214.81;4973866;28;20323;-66
2023/02/28 10:57:47;;;;;;;;;;;;;;;-142.75;95.19;79222.72;4973579;28;20465;-66
2023/02/28 11:00:13;;;;;;;;;;;;;;;-142.75;91.08;79228.63;4973326;28;19918;-65
2023/02/28 11:02:40;;;;;;;;;;;;;;;-142.75;87.82;79145.88;4973765;28;20302;-66
2023/02/28 11:05:24;;;;;;;;;;;;;;;-142.75;78.60;79110.44;4973566;28;19917;-66
2023/02/28 11:07:54;;;;;;;;;;;;;;;-142.75;73.47;79100.59;4972327;28;19914;-65
2023/02/28 11:10:21;;;;;;;;;;;;;;;-142.75;72.91;79094.69;4971883;28;19914;-67
2023/02/28 11:12:46;;;;;;;;;;;;;;;-142.75;71.43;79116.34;4973499;28;19918;-66
2023/02/28 11:15:22;;;;;;;;;;;;;;;-142.75;71.90;79173.47;4973318;28;20307;-67
2023/02/28 11:17:56;;;;;;;;;;;;;;;-142.75;71.41;79240.44;4972507;28;19921;-66
2023/02/28 11:20:23;;;;;;;;;;;;;;;-142.75;69.66;79335.00;4972615;28;19913;-66
2023/02/28 11:22:50;;;;;;;;;;;;;;;-142.75;70.27;79344.84;4973338;28;19940;-66
2023/02/28 11:25:26;;;;;;;;;;;;;;;-142.75;72.51;79372.41;4972002;28;19918;-66
2023/02/28 11:27:52;;;;;;;;;;;;;;;-142.75;71.81;79374.38;4955079;28;19914;-66
2023/02/28 11:30:24;;;;;;;;;;;;;;;-142.75;75.60;79346.81;4972783;28;19914;-66
2023/02/28 11:32:49;;;;;;;;;;;;;;;-142.75;73.62;79323.16;4969778;28;19913;-67
2023/02/28 11:35:23;;;;;;;;;;;;;;;-142.75;71.92;79299.53;4971086;28;19946;-66
2023/02/28 11:37:48;;;;;;;;;;;;;;;-142.75;71.85;79244.38;4972506;28;20288;-66
2023/02/28 11:40:17;;;;;;;;;;;;;;;-142.75;68.98;79242.41;4972612;28;19920;-66
2023/02/28 11:43:01;;;;;;;;;;;;;;;-142.75;69.21;79216.78;4972730;28;19956;-66
2023/02/28 11:45:35;;;;;;;;;;;;;;;-142.75;70.63;79228.63;4973211;28;19914;-64
2023/02/28 11:48:09;;;;;;;;;;;;;;;-142.75;69.53;79212.84;4972698;28;19914;-65
2023/02/28 11:50:57;;;;;;;;;;;;;;;-142.75;69.45;79165.59;4972146;28;19914;-66
2023/02/28 11:53:42;;;;;;;;;;;;;;;-142.75;67.52;79074.97;4963519;28;19920;-65
2023/02/28 11:56:07;;;;;;;;;;;;;;;-142.75;64.84;79043.47;4972561;28;19925;-66
2023/02/28 11:58:36;;;;;;;;;;;;;;;-142.75;61.46;79069.06;4972621;28;19914;-66
2023/02/28 12:01:21;;;;;;;;;;;;;;;-142.75;64.31;78992.25;4972486;28;19914;-65
2023/02/28 12:04:05;;;;;;;;;;;;;;;-142.75;61.43;78905.59;4972631;28;20383;-67
2023/02/28 12:06:49;;;;;;;;;;;;;;;-142.75;60.13;78830.75;4972532;28;19981;-67
2023/02/28 12:09:33;;;;;;;;;;;;;;;-142.75;54.81;78803.16;4968009;28;19918;-67
2023/02/28 12:12:06;;;;;;;;;;;;;;;-142.75;51.18;78783.47;4967057;28;19914;-67
2023/02/28 12:14:35;;;;;;;;;;;;;;;-142.75;49.09;78801.19;4970895;28;19918;-66
2023/02/28 12:17:18;;;;;;;;;;;;;;;-142.75;49.29;78801.19;4970313;28;19994;-65
2023/02/28 12:19:44;;;;;;;;;;;;;;;-142.75;49.83;78836.66;4968835;28;20307;-66
2023/02/28 12:22:09;;;;;;;;;;;;;;;-142.75;49.14;78881.94;4972070;28;19921;-66